Time;durP1;ratioP1;P1;durP2;ratioP2;P2;SDS_P1;SDS_P2;PMS_P1;PMS_P2;Temp;Humidity;BMP_temperature;BMP_pressure;BME280_temperature;BME280_humidity;BME280_pressure;Samples;Min_cycle;Max_cycle;Signal;HPM_P1;HPM_P2
2021/12/06 00:01:17;;;;;;;43.40;27.17;;;;;;;;;;5047126;28;20553;-76
2021/12/06 00:03:54;;;;;;;40.45;26.88;;;;;;;;;;5045821;28;20186;-77
2021/12/06 00:06:21;;;;;;;39.17;25.60;;;;;;;;;;5045389;28;20053;-75
2021/12/06 00:08:47;;;;;;;37.80;26.02;;;;;;;;;;5029262;28;20041;-76
2021/12/06 00:11:14;;;;;;;40.95;26.35;;;;;;;;;;5047867;28;20509;-77
2021/12/06 00:13:41;;;;;;;43.70;27.25;;;;;;;;;;5047063;28;20522;-76
2021/12/06 00:16:12;;;;;;;43.08;27.15;;;;;;;;;;5047269;28;20048;-76
2021/12/06 00:18:38;;;;;;;42.80;27.27;;;;;;;;;;5044800;28;20408;-76
2021/12/06 00:21:05;;;;;;;40.58;26.15;;;;;;;;;;5046371;28;20591;-77
2021/12/06 00:23:31;;;;;;;44.08;27.35;;;;;;;;;;5047370;28;20397;-76
2021/12/06 00:25:57;;;;;;;39.50;26.08;;;;;;;;;;5044396;28;20114;-76
2021/12/06 00:28:24;;;;;;;43.13;27.83;;;;;;;;;;5046497;28;20118;-76
2021/12/06 00:30:51;;;;;;;43.45;26.45;;;;;;;;;;5044283;28;20067;-76
2021/12/06 00:33:17;;;;;;;41.95;27.95;;;;;;;;;;5045231;28;20090;-77
2021/12/06 00:35:44;;;;;;;44.45;27.67;;;;;;;;;;5046600;28;20044;-78
2021/12/06 00:38:10;;;;;;;45.08;26.92;;;;;;;;;;5045258;28;20365;-80
2021/12/06 00:40:38;;;;;;;46.95;26.60;;;;;;;;;;5046898;28;20106;-77
2021/12/06 00:43:04;;;;;;;43.17;27.15;;;;;;;;;;5045511;28;20592;-77
2021/12/06 00:45:31;;;;;;;44.17;26.52;;;;;;;;;;5045051;28;20548;-76
2021/12/06 00:47:57;;;;;;;43.63;26.63;;;;;;;;;;5044739;28;20118;-77
2021/12/06 00:50:24;;;;;;;41.80;26.70;;;;;;;;;;5047256;28;20159;-76
2021/12/06 00:52:51;;;;;;;41.58;26.15;;;;;;;;;;5046457;28;20066;-77
2021/12/06 00:55:18;;;;;;;44.47;27.50;;;;;;;;;;5046373;28;20037;-77
2021/12/06 00:57:44;;;;;;;41.63;26.90;;;;;;;;;;5029684;28;20045;-77
2021/12/06 01:00:30;;;;;;;43.25;27.23;;;;;;;;;;5045067;28;20041;-78
2021/12/06 01:02:57;;;;;;;42.35;26.83;;;;;;;;;;5044667;28;20107;-76
2021/12/06 01:05:25;;;;;;;43.13;28.23;;;;;;;;;;5046036;28;20045;-76
2021/12/06 01:07:53;;;;;;;42.58;26.88;;;;;;;;;;5045086;28;20051;-76
2021/12/06 01:10:20;;;;;;;40.65;27.08;;;;;;;;;;5044724;28;20084;-77
2021/12/06 01:12:46;;;;;;;41.85;26.15;;;;;;;;;;5046374;28;20500;-75
2021/12/06 01:15:12;;;;;;;43.20;27.60;;;;;;;;;;5045316;28;20048;-76
2021/12/06 01:17:38;;;;;;;41.40;26.85;;;;;;;;;;5044893;28;20049;-76
2021/12/06 01:20:06;;;;;;;45.45;27.23;;;;;;;;;;5045497;28;20106;-77
2021/12/06 01:22:43;;;;;;;42.90;27.23;;;;;;;;;;5045485;28;20393;-77
2021/12/06 01:25:23;;;;;;;41.70;26.77;;;;;;;;;;5045108;28;20056;-76
2021/12/06 01:28:16;;;;;;;44.08;26.60;;;;;;;;;;5044125;28;20441;-76
2021/12/06 01:41:11;;;;;;;40.72;25.75;;;;;;;;;;5048064;28;20152;-77
2021/12/06 01:43:37;;;;;;;46.53;28.13;;;;;;;;;;5065768;28;20504;-76
2021/12/06 01:46:04;;;;;;;44.53;27.15;;;;;;;;;;5050734;28;20416;-76
2021/12/06 01:48:30;;;;;;;46.75;27.17;;;;;;;;;;5037001;28;20041;-76
2021/12/06 01:50:56;;;;;;;47.25;29.23;;;;;;;;;;5049802;28;20041;-77
2021/12/06 01:53:22;;;;;;;46.33;28.40;;;;;;;;;;5049584;28;20060;-76
2021/12/06 01:55:48;;;;;;;52.78;29.10;;;;;;;;;;5031708;28;20044;-77
2021/12/06 01:58:14;;;;;;;46.38;27.27;;;;;;;;;;5049426;28;20079;-76
2021/12/06 02:00:44;;;;;;;44.65;27.60;;;;;;;;;;5048077;28;20624;-77
2021/12/06 02:03:16;;;;;;;48.00;28.55;;;;;;;;;;5048681;28;20060;-77
2021/12/06 02:05:44;;;;;;;46.67;27.80;;;;;;;;;;5049096;28;20396;-75
2021/12/06 02:08:10;;;;;;;50.13;30.08;;;;;;;;;;5050199;28;20052;-76
2021/12/06 02:10:38;;;;;;;46.10;29.08;;;;;;;;;;5049066;28;20044;-75
2021/12/06 02:13:06;;;;;;;46.95;27.75;;;;;;;;;;5048173;28;20037;-76
2021/12/06 02:15:53;;;;;;;49.13;29.33;;;;;;;;;;5048396;28;20448;-77
2021/12/06 02:21:11;;;;;;;49.17;29.38;;;;;;;;;;5050406;28;20111;-78
2021/12/06 02:23:38;;;;;;;48.28;28.60;;;;;;;;;;5038459;28;20055;-78
2021/12/06 02:26:04;;;;;;;46.22;28.27;;;;;;;;;;5035017;28;20089;-78
2021/12/06 02:28:30;;;;;;;46.28;26.70;;;;;;;;;;5047012;28;20050;-76
2021/12/06 02:30:56;;;;;;;47.58;28.63;;;;;;;;;;5049014;28;20049;-77
2021/12/06 02:33:23;;;;;;;43.35;26.20;;;;;;;;;;5049412;28;20056;-77
2021/12/06 02:35:49;;;;;;;45.95;25.65;;;;;;;;;;5048258;28;20044;-75
2021/12/06 02:38:15;;;;;;;43.97;26.35;;;;;;;;;;5049362;28;20374;-77
2021/12/06 02:40:41;;;;;;;43.28;26.70;;;;;;;;;;5048507;28;20067;-78
2021/12/06 02:43:08;;;;;;;44.15;26.75;;;;;;;;;;5047920;28;20128;-80
2021/12/06 02:45:35;;;;;;;44.25;27.05;;;;;;;;;;5049337;28;20132;-76
2021/12/06 02:48:03;;;;;;;50.13;28.15;;;;;;;;;;5046777;28;20068;-77
2021/12/06 02:50:32;;;;;;;46.53;28.23;;;;;;;;;;5048293;28;20480;-77
2021/12/06 02:52:58;;;;;;;46.80;26.38;;;;;;;;;;5047613;28;20591;-77
2021/12/06 02:55:37;;;;;;;44.92;26.00;;;;;;;;;;5030311;28;20558;-77
2021/12/06 02:58:32;;;;;;;42.88;25.75;;;;;;;;;;5029886;28;20041;-76
2021/12/06 03:00:58;;;;;;;;;;;;;;;;;;5046834;28;20501;-78
2021/12/06 03:03:24;;;;;;;48.08;28.02;;;;;;;;;;5048220;28;19925;-77
2021/12/06 03:05:52;;;;;;;46.45;27.38;;;;;;;;;;5029995;28;20045;-76
2021/12/06 03:08:34;;;;;;;45.28;26.30;;;;;;;;;;5047042;28;20055;-76
2021/12/06 03:11:00;;;;;;;47.15;24.70;;;;;;;;;;5030396;28;20037;-76
2021/12/06 03:13:26;;;;;;;47.13;26.77;;;;;;;;;;5047245;28;20107;-77
2021/12/06 03:15:52;;;;;;;49.58;27.70;;;;;;;;;;5046450;28;20540;-78
2021/12/06 03:18:18;;;;;;;49.33;26.05;;;;;;;;;;5046858;28;20493;-77
2021/12/06 03:20:44;;;;;;;49.45;27.63;;;;;;;;;;5030408;28;20041;-76
2021/12/06 03:23:11;;;;;;;51.78;28.67;;;;;;;;;;5038973;28;20041;-76
2021/12/06 03:25:37;;;;;;;49.78;26.73;;;;;;;;;;5047568;28;20045;-75
2021/12/06 03:28:03;;;;;;;54.95;29.60;;;;;;;;;;5036221;28;20472;-77
2021/12/06 03:30:30;;;;;;;54.78;28.80;;;;;;;;;;5046400;28;20143;-76
2021/12/06 03:32:56;;;;;;;55.00;28.52;;;;;;;;;;5048311;28;20636;-76
2021/12/06 03:35:22;;;;;;;56.50;30.00;;;;;;;;;;5047855;28;20509;-75
2021/12/06 03:37:48;;;;;;;54.22;29.40;;;;;;;;;;5046042;28;20036;-76
2021/12/06 03:40:14;;;;;;;53.70;27.92;;;;;;;;;;5029667;28;20111;-76
2021/12/06 03:42:40;;;;;;;51.60;27.08;;;;;;;;;;5046377;28;20041;-76
2021/12/06 03:45:08;;;;;;;54.42;28.42;;;;;;;;;;5046089;28;20052;-77
2021/12/06 03:47:34;;;;;;;54.10;29.13;;;;;;;;;;5047383;28;20052;-76
2021/12/06 03:50:00;;;;;;;50.58;26.83;;;;;;;;;;5045590;28;20041;-76
2021/12/06 03:52:26;;;;;;;48.40;27.83;;;;;;;;;;5046292;28;20408;-76
2021/12/06 03:54:53;;;;;;;57.80;29.35;;;;;;;;;;5029470;28;20515;-76
2021/12/06 03:57:20;;;;;;;54.80;29.45;;;;;;;;;;5046422;28;20041;-77
2021/12/06 03:59:47;;;;;;;53.08;28.83;;;;;;;;;;5046354;28;20031;-77
2021/12/06 04:02:13;;;;;;;50.72;27.23;;;;;;;;;;5045243;28;20044;-75
2021/12/06 04:04:39;;;;;;;53.95;28.52;;;;;;;;;;5029617;28;20044;-77
2021/12/06 04:07:07;;;;;;;53.38;28.05;;;;;;;;;;5045386;28;20136;-76
2021/12/06 04:09:33;;;;;;;56.22;28.85;;;;;;;;;;5046092;28;20055;-77
2021/12/06 04:11:59;;;;;;;52.90;25.75;;;;;;;;;;5047618;28;20171;-77
2021/12/06 04:14:25;;;;;;;55.72;27.98;;;;;;;;;;5046690;28;20083;-76
2021/12/06 04:16:52;;;;;;;50.03;27.30;;;;;;;;;;5045815;28;20056;-76
2021/12/06 04:19:18;;;;;;;52.95;29.25;;;;;;;;;;5045736;28;20052;-76
2021/12/06 04:21:45;;;;;;;55.80;28.73;;;;;;;;;;5047861;28;20052;-77
2021/12/06 04:24:12;;;;;;;53.83;27.15;;;;;;;;;;5044519;28;20041;-77
2021/12/06 04:26:38;;;;;;;52.55;27.73;;;;;;;;;;5045735;28;20044;-76
2021/12/06 04:29:05;;;;;;;54.90;28.83;;;;;;;;;;5045054;28;20063;-77
2021/12/06 04:31:33;;;;;;;47.53;26.17;;;;;;;;;;5044852;28;20095;-76
2021/12/06 04:34:00;;;;;;;47.83;25.58;;;;;;;;;;5044857;28;20049;-77
2021/12/06 04:36:26;;;;;;;49.03;26.77;;;;;;;;;;5045727;28;20052;-76
2021/12/06 04:38:53;;;;;;;50.38;26.02;;;;;;;;;;5045245;28;20140;-76
2021/12/06 04:41:20;;;;;;;55.35;29.55;;;;;;;;;;5044312;28;20048;-77
2021/12/06 04:43:46;;;;;;;49.35;26.33;;;;;;;;;;5029184;28;20045;-77
2021/12/06 04:46:12;;;;;;;55.92;30.73;;;;;;;;;;5038909;28;20037;-76
2021/12/06 04:48:38;;;;;;;51.17;28.38;;;;;;;;;;5028752;28;20055;-76
2021/12/06 04:51:04;;;;;;;58.55;29.98;;;;;;;;;;5044964;28;20048;-76
2021/12/06 04:53:36;;;;;;;56.28;29.08;;;;;;;;;;5044535;28;20071;-76
2021/12/06 04:56:05;;;;;;;53.33;29.42;;;;;;;;;;5044105;28;20089;-77
2021/12/06 04:58:34;;;;;;;56.67;29.40;;;;;;;;;;5043269;28;20049;-76
2021/12/06 05:01:09;;;;;;;53.72;29.45;;;;;;;;;;5044688;28;20041;-76
2021/12/06 05:03:35;;;;;;;51.55;29.40;;;;;;;;;;5045644;28;20055;-76
2021/12/06 05:06:04;;;;;;;53.63;29.38;;;;;;;;;;5042801;28;20440;-75
2021/12/06 05:08:32;;;;;;;52.60;29.33;;;;;;;;;;5042447;28;20135;-76
2021/12/06 05:10:58;;;;;;;57.05;31.70;;;;;;;;;;5044046;28;20110;-76
2021/12/06 05:13:26;;;;;;;58.15;29.42;;;;;;;;;;5044695;28;20036;-77
2021/12/06 05:15:52;;;;;;;57.95;30.38;;;;;;;;;;5043584;28;20049;-76
2021/12/06 05:18:18;;;;;;;57.25;30.67;;;;;;;;;;5045338;28;20136;-77
2021/12/06 05:20:45;;;;;;;56.78;30.42;;;;;;;;;;5044354;28;20029;-77
2021/12/06 05:23:11;;;;;;;57.40;31.58;;;;;;;;;;5045438;28;20114;-76
2021/12/06 05:25:37;;;;;;;60.30;32.63;;;;;;;;;;5043804;28;20059;-75
2021/12/06 05:28:04;;;;;;;55.42;30.65;;;;;;;;;;5010385;28;20045;-78
2021/12/06 05:30:31;;;;;;;58.63;31.52;;;;;;;;;;5043239;28;20048;-75
2021/12/06 05:32:58;;;;;;;57.10;32.20;;;;;;;;;;5027478;28;20186;-77
2021/12/06 05:35:25;;;;;;;57.70;32.03;;;;;;;;;;5044768;28;20463;-77
2021/12/06 05:37:56;;;;;;;55.03;30.77;;;;;;;;;;5044679;28;20512;-77
2021/12/06 05:40:28;;;;;;;62.92;32.42;;;;;;;;;;5043479;28;20033;-77
2021/12/06 05:42:55;;;;;;;57.65;32.10;;;;;;;;;;5044239;28;20081;-76
2021/12/06 05:45:22;;;;;;;61.65;32.35;;;;;;;;;;5043828;28;20044;-76
2021/12/06 05:47:48;;;;;;;65.20;33.60;;;;;;;;;;5043461;28;20500;-75
2021/12/06 05:50:15;;;;;;;71.25;36.45;;;;;;;;;;5043340;28;20040;-76
2021/12/06 05:52:41;;;;;;;63.90;36.45;;;;;;;;;;5044490;28;20037;-75
2021/12/06 05:55:08;;;;;;;63.55;32.92;;;;;;;;;;5042925;28;20041;-79
2021/12/06 05:57:34;;;;;;;63.90;33.90;;;;;;;;;;5045073;28;20441;-80
2021/12/06 06:00:01;;;;;;;62.40;31.83;;;;;;;;;;5043247;28;20041;-79
2021/12/06 06:02:27;;;;;;;61.65;30.30;;;;;;;;;;5045516;28;20043;-80
2021/12/06 06:04:53;;;;;;;61.40;31.63;;;;;;;;;;5046721;28;20044;-79
2021/12/06 06:07:19;;;;;;;62.13;32.72;;;;;;;;;;5044729;28;20528;-80
2021/12/06 06:09:45;;;;;;;53.78;30.33;;;;;;;;;;5045837;28;20037;-80
2021/12/06 06:12:11;;;;;;;60.13;31.70;;;;;;;;;;5044130;28;20045;-80
2021/12/06 06:14:37;;;;;;;58.17;29.77;;;;;;;;;;5047086;28;20734;-80
2021/12/06 06:17:13;;;;;;;61.65;31.77;;;;;;;;;;5027064;28;20045;-79
2021/12/06 06:19:44;;;;;;;61.33;29.70;;;;;;;;;;5044342;28;20057;-80
2021/12/06 06:22:10;;;;;;;64.35;32.33;;;;;;;;;;5044186;28;20551;-80
2021/12/06 06:24:36;;;;;;;62.03;32.88;;;;;;;;;;5047779;28;20497;-80
2021/12/06 06:27:02;;;;;;;61.60;31.50;;;;;;;;;;5047195;28;20066;-79
2021/12/06 06:29:29;;;;;;;63.83;33.45;;;;;;;;;;5030294;28;20048;-80
2021/12/06 06:31:55;;;;;;;63.85;31.75;;;;;;;;;;5047455;28;20126;-80
2021/12/06 06:34:21;;;;;;;68.47;31.08;;;;;;;;;;5047758;28;20396;-79
2021/12/06 06:36:47;;;;;;;66.53;32.00;;;;;;;;;;5047956;28;20041;-80
2021/12/06 06:39:14;;;;;;;60.30;29.85;;;;;;;;;;5057463;28;20049;-80
2021/12/06 06:41:40;;;;;;;66.40;32.88;;;;;;;;;;5045199;28;20055;-80
2021/12/06 06:44:06;;;;;;;66.60;31.48;;;;;;;;;;5045525;28;20041;-81
2021/12/06 06:46:33;;;;;;;64.70;32.22;;;;;;;;;;5045099;28;20519;-80
2021/12/06 06:48:59;;;;;;;65.03;33.30;;;;;;;;;;5047606;28;20037;-80
2021/12/06 06:51:27;;;;;;;66.80;32.50;;;;;;;;;;5044138;28;20047;-80
2021/12/06 06:53:53;;;;;;;73.30;34.65;;;;;;;;;;5045588;28;20053;-80
2021/12/06 06:56:19;;;;;;;78.97;36.13;;;;;;;;;;5046198;28;20095;-80
2021/12/06 06:58:46;;;;;;;67.38;32.42;;;;;;;;;;5046676;28;20048;-80
2021/12/06 07:01:15;;;;;;;72.63;34.83;;;;;;;;;;5046222;28;20033;-80
2021/12/06 07:03:41;;;;;;;74.90;36.50;;;;;;;;;;5047195;28;20037;-81
2021/12/06 07:06:07;;;;;;;68.53;32.83;;;;;;;;;;5047365;28;20489;-81
2021/12/06 07:08:33;;;;;;;69.93;34.20;;;;;;;;;;5046094;28;20044;-80
2021/12/06 07:11:00;;;;;;;69.68;32.17;;;;;;;;;;5047544;28;20118;-80
2021/12/06 07:13:27;;;;;;;74.05;34.72;;;;;;;;;;5045523;28;20408;-80
2021/12/06 07:15:53;;;;;;;73.15;32.90;;;;;;;;;;5047330;28;20037;-80
2021/12/06 07:18:19;;;;;;;71.45;33.33;;;;;;;;;;5046424;28;20094;-80
2021/12/06 07:20:45;;;;;;;73.07;33.00;;;;;;;;;;5047398;28;20788;-80
2021/12/06 07:23:12;;;;;;;71.85;33.95;;;;;;;;;;5046190;28;20029;-79
2021/12/06 07:25:39;;;;;;;70.70;34.33;;;;;;;;;;5038011;28;20490;-80
2021/12/06 07:28:06;;;;;;;77.68;34.50;;;;;;;;;;5059563;28;20037;-80
2021/12/06 07:30:32;;;;;;;81.80;35.53;;;;;;;;;;5061047;28;20053;-80
2021/12/06 07:32:59;;;;;;;85.28;37.67;;;;;;;;;;5058140;28;20293;-80
2021/12/06 07:35:27;;;;;;;84.60;38.90;;;;;;;;;;5058085;28;20029;-80
2021/12/06 07:37:53;;;;;;;90.18;43.35;;;;;;;;;;5055804;28;20094;-80
2021/12/06 07:40:19;;;;;;;94.25;42.97;;;;;;;;;;5044973;28;20153;-81
2021/12/06 07:42:46;;;;;;;92.13;39.88;;;;;;;;;;5047264;28;20049;-80
2021/12/06 07:45:12;;;;;;;113.28;59.38;;;;;;;;;;5046988;28;20182;-80
2021/12/06 07:47:38;;;;;;;101.32;49.28;;;;;;;;;;5045329;28;20400;-80
2021/12/06 07:50:07;;;;;;;86.63;41.13;;;;;;;;;;5045140;28;20057;-80
2021/12/06 07:52:35;;;;;;;71.20;33.97;;;;;;;;;;5028213;28;20148;-80
2021/12/06 07:55:02;;;;;;;69.82;33.67;;;;;;;;;;5045195;28;20519;-80
2021/12/06 07:57:28;;;;;;;69.53;34.30;;;;;;;;;;5044692;28;20049;-80
2021/12/06 07:59:55;;;;;;;70.80;35.55;;;;;;;;;;5046035;28;20416;-80
2021/12/06 08:02:22;;;;;;;68.72;33.97;;;;;;;;;;5044013;28;20051;-80
2021/12/06 08:04:54;;;;;;;68.75;34.42;;;;;;;;;;5044708;28;20037;-80
2021/12/06 08:07:20;;;;;;;72.30;36.40;;;;;;;;;;5044385;28;20072;-80
2021/12/06 08:09:49;;;;;;;71.63;36.45;;;;;;;;;;5044693;28;20044;-80
2021/12/06 08:12:15;;;;;;;81.28;39.72;;;;;;;;;;5043595;28;20052;-80
2021/12/06 08:14:41;;;;;;;84.82;45.15;;;;;;;;;;5058808;28;20037;-79
2021/12/06 08:17:07;;;;;;;84.88;40.90;;;;;;;;;;5045146;28;20048;-80
2021/12/06 08:19:33;;;;;;;63.45;31.70;;;;;;;;;;5043320;28;20047;-80
2021/12/06 08:22:00;;;;;;;66.90;34.40;;;;;;;;;;5045055;28;20404;-80
2021/12/06 08:24:26;;;;;;;65.75;33.78;;;;;;;;;;5044630;28;20108;-80
2021/12/06 08:26:52;;;;;;;81.38;39.90;;;;;;;;;;5042811;28;20045;-79
2021/12/06 08:29:23;;;;;;;75.28;37.55;;;;;;;;;;5045829;28;20039;-79
2021/12/06 08:31:50;;;;;;;82.97;39.50;;;;;;;;;;5045357;28;20131;-80
2021/12/06 08:34:16;;;;;;;76.18;36.72;;;;;;;;;;5042953;28;20032;-80
2021/12/06 08:36:42;;;;;;;79.53;36.92;;;;;;;;;;5042971;28;20052;-80
2021/12/06 08:39:08;;;;;;;74.80;33.92;;;;;;;;;;5042894;28;20341;-80
2021/12/06 08:41:34;;;;;;;70.75;34.17;;;;;;;;;;5043088;28;20049;-80
2021/12/06 08:44:04;;;;;;;77.07;35.38;;;;;;;;;;5044072;28;20045;-79
2021/12/06 08:46:32;;;;;;;72.72;34.97;;;;;;;;;;5044060;28;20037;-80
2021/12/06 08:49:00;;;;;;;71.40;33.15;;;;;;;;;;5044225;28;20148;-81
2021/12/06 08:51:28;;;;;;;75.00;34.05;;;;;;;;;;5045092;28;20045;-80
2021/12/06 08:53:54;;;;;;;76.75;34.50;;;;;;;;;;5042546;28;20051;-79
2021/12/06 08:56:20;;;;;;;85.43;37.25;;;;;;;;;;5043219;28;20831;-80
2021/12/06 08:58:47;;;;;;;77.68;35.15;;;;;;;;;;5043160;28;20374;-81
2021/12/06 09:01:13;;;;;;;84.57;37.88;;;;;;;;;;5043257;28;20057;-80
2021/12/06 09:03:39;;;;;;;91.30;39.40;;;;;;;;;;5043415;28;20559;-80
2021/12/06 09:06:07;;;;;;;80.63;36.72;;;;;;;;;;5041086;28;20044;-79
2021/12/06 09:08:34;;;;;;;84.03;36.40;;;;;;;;;;5044454;28;20485;-78
2021/12/06 09:11:04;;;;;;;76.00;35.67;;;;;;;;;;5043687;28;20036;-80
2021/12/06 09:13:31;;;;;;;81.47;38.50;;;;;;;;;;5043921;28;20037;-79
2021/12/06 09:15:59;;;;;;;88.93;39.88;;;;;;;;;;5042031;28;20057;-80
2021/12/06 09:18:29;;;;;;;76.30;34.85;;;;;;;;;;5041840;28;20048;-79
2021/12/06 09:20:57;;;;;;;78.13;34.22;;;;;;;;;;5044675;28;20052;-79
2021/12/06 09:23:23;;;;;;;81.68;34.05;;;;;;;;;;5043234;28;20492;-80
2021/12/06 09:25:50;;;;;;;78.88;34.22;;;;;;;;;;5044593;28;20162;-80
2021/12/06 09:28:17;;;;;;;83.53;36.28;;;;;;;;;;5043324;28;20041;-81
2021/12/06 09:30:43;;;;;;;82.90;35.00;;;;;;;;;;5043740;28;20493;-81
2021/12/06 09:33:10;;;;;;;78.47;34.25;;;;;;;;;;5035449;28;20055;-81
2021/12/06 09:35:40;;;;;;;83.15;34.00;;;;;;;;;;5042365;28;20041;-81
2021/12/06 09:38:06;;;;;;;84.43;34.95;;;;;;;;;;5045419;28;20057;-81
2021/12/06 09:40:34;;;;;;;94.78;45.05;;;;;;;;;;5042327;28;20056;-80
2021/12/06 09:49:45;;;;;;;74.15;32.53;;;;;;;;;;5045690;28;20036;-79
2021/12/06 09:52:12;;;;;;;77.05;34.03;;;;;;;;;;5026035;28;20441;-80
2021/12/06 09:54:40;;;;;;;77.75;33.63;;;;;;;;;;5041304;28;20401;-80
2021/12/06 09:57:07;;;;;;;72.68;32.20;;;;;;;;;;5044147;28;20106;-81
2021/12/06 09:59:34;;;;;;;79.80;34.05;;;;;;;;;;5045391;28;20045;-80
2021/12/06 10:02:03;;;;;;;80.68;33.20;;;;;;;;;;5047639;28;20472;-80
2021/12/06 10:04:32;;;;;;;69.25;32.60;;;;;;;;;;5046717;28;20037;-79
2021/12/06 10:06:59;;;;;;;65.50;30.15;;;;;;;;;;5044838;28;20033;-81
2021/12/06 10:09:25;;;;;;;60.85;29.73;;;;;;;;;;5047492;28;20124;-80
2021/12/06 10:11:53;;;;;;;64.32;30.38;;;;;;;;;;5046639;28;20666;-79
2021/12/06 10:14:19;;;;;;;62.25;30.25;;;;;;;;;;5048442;28;20128;-80
2021/12/06 10:16:45;;;;;;;61.15;27.52;;;;;;;;;;5045763;28;20082;-80
2021/12/06 10:19:12;;;;;;;65.00;30.23;;;;;;;;;;5045000;28;20472;-80
2021/12/06 10:21:39;;;;;;;62.30;29.63;;;;;;;;;;5043461;28;20116;-81
2021/12/06 10:24:17;;;;;;;64.32;30.77;;;;;;;;;;5046189;28;20522;-80
2021/12/06 10:26:43;;;;;;;65.35;29.73;;;;;;;;;;5044947;28;20053;-79
2021/12/06 10:29:11;;;;;;;62.45;28.92;;;;;;;;;;5046282;28;20465;-80
2021/12/06 10:31:43;;;;;;;63.97;29.38;;;;;;;;;;5045841;28;20524;-80
2021/12/06 10:34:14;;;;;;;62.95;30.73;;;;;;;;;;5047712;28;20087;-79
2021/12/06 10:36:41;;;;;;;58.45;29.13;;;;;;;;;;5047844;28;20487;-80
2021/12/06 10:39:08;;;;;;;63.90;28.92;;;;;;;;;;5047448;28;20091;-79
2021/12/06 10:41:35;;;;;;;65.88;30.88;;;;;;;;;;5046179;28;20152;-80
2021/12/06 10:44:04;;;;;;;67.63;31.70;;;;;;;;;;5046984;28;20041;-80
2021/12/06 10:46:31;;;;;;;57.15;27.67;;;;;;;;;;5046140;28;20198;-79
2021/12/06 10:48:59;;;;;;;69.50;28.58;;;;;;;;;;5046459;28;20087;-80
2021/12/06 10:51:25;;;;;;;54.60;27.45;;;;;;;;;;5046979;28;20400;-80
2021/12/06 10:54:05;;;;;;;55.15;27.67;;;;;;;;;;5048337;28;20041;-79
2021/12/06 10:56:45;;;;;;;55.53;28.13;;;;;;;;;;5023951;28;20051;-79
2021/12/06 10:59:18;;;;;;;55.70;29.08;;;;;;;;;;5048075;28;20100;-79
2021/12/06 11:01:46;;;;;;;56.90;29.65;;;;;;;;;;5046744;28;20041;-79
2021/12/06 11:04:14;;;;;;;52.38;25.73;;;;;;;;;;5045728;28;20653;-79
2021/12/06 11:06:43;;;;;;;50.97;26.70;;;;;;;;;;5046968;28;20431;-80
2021/12/06 11:09:10;;;;;;;56.83;29.42;;;;;;;;;;5045787;28;20044;-80
2021/12/06 11:11:41;;;;;;;47.55;25.42;;;;;;;;;;5047423;28;20048;-80
2021/12/06 11:14:09;;;;;;;53.10;25.15;;;;;;;;;;5047520;28;20432;-80
2021/12/06 11:16:45;;;;;;;46.88;25.45;;;;;;;;;;5047719;28;20437;-79
2021/12/06 11:19:13;;;;;;;46.70;24.38;;;;;;;;;;5047382;28;20089;-80
2021/12/06 11:21:45;;;;;;;44.90;22.67;;;;;;;;;;5044995;28;20033;-80
2021/12/06 11:24:19;;;;;;;41.38;21.73;;;;;;;;;;5047968;28;20076;-80
2021/12/06 11:26:48;;;;;;;43.42;23.15;;;;;;;;;;5045463;28;20055;-80
2021/12/06 11:29:33;;;;;;;42.65;22.73;;;;;;;;;;5046132;28;20583;-80
2021/12/06 11:32:02;;;;;;;50.22;23.08;;;;;;;;;;5047149;28;20049;-81
2021/12/06 11:34:30;;;;;;;42.78;22.55;;;;;;;;;;5046553;28;20087;-80
2021/12/06 11:36:56;;;;;;;47.47;24.70;;;;;;;;;;5046486;28;20404;-80
2021/12/06 11:39:23;;;;;;;49.05;25.17;;;;;;;;;;5044568;28;20029;-80
2021/12/06 11:41:51;;;;;;;51.72;26.13;;;;;;;;;;5046943;28;20092;-81
2021/12/06 11:44:17;;;;;;;49.38;25.15;;;;;;;;;;5045521;28;20048;-80
2021/12/06 11:46:44;;;;;;;50.10;25.02;;;;;;;;;;5046283;28;20045;-80
2021/12/06 11:49:20;;;;;;;54.85;27.05;;;;;;;;;;5046795;28;20045;-80
2021/12/06 11:51:47;;;;;;;55.65;27.23;;;;;;;;;;5046149;28;20100;-79
2021/12/06 11:54:13;;;;;;;51.70;27.17;;;;;;;;;;5045836;28;20040;-79
2021/12/06 11:56:44;;;;;;;52.92;27.95;;;;;;;;;;5046112;28;20048;-81
2021/12/06 11:59:11;;;;;;;57.25;27.63;;;;;;;;;;5046591;28;20053;-80
2021/12/06 12:01:50;;;;;;;56.67;27.08;;;;;;;;;;5045651;28;20053;-80
2021/12/06 12:04:23;;;;;;;57.47;29.45;;;;;;;;;;5046644;28;20051;-79
2021/12/06 12:07:00;;;;;;;58.95;28.98;;;;;;;;;;5045349;28;20045;-80
2021/12/06 12:09:28;;;;;;;63.05;30.23;;;;;;;;;;5045586;28;20049;-79
2021/12/06 12:12:10;;;;;;;60.67;29.80;;;;;;;;;;5045999;28;20056;-80
2021/12/06 12:14:38;;;;;;;56.42;27.50;;;;;;;;;;5025482;28;20076;-79
2021/12/06 12:17:07;;;;;;;58.63;29.35;;;;;;;;;;5041842;28;20041;-79
2021/12/06 12:19:34;;;;;;;54.13;27.13;;;;;;;;;;5026346;28;20034;-80
2021/12/06 12:22:00;;;;;;;49.30;27.52;;;;;;;;;;5038457;28;20069;-80
2021/12/06 12:24:26;;;;;;;55.35;28.55;;;;;;;;;;5046762;28;20049;-80
2021/12/06 12:26:59;;;;;;;52.72;28.00;;;;;;;;;;5043912;28;20040;-79
2021/12/06 12:29:27;;;;;;;50.88;26.67;;;;;;;;;;5045573;28;20389;-80
2021/12/06 12:31:58;;;;;;;45.53;23.52;;;;;;;;;;5045828;28;20049;-80
2021/12/06 12:34:26;;;;;;;50.00;24.55;;;;;;;;;;5046162;28;20144;-79
2021/12/06 12:36:52;;;;;;;47.13;24.35;;;;;;;;;;5046019;28;20493;-79
2021/12/06 12:39:19;;;;;;;45.85;23.90;;;;;;;;;;5045578;28;20621;-79
2021/12/06 12:41:50;;;;;;;39.40;23.48;;;;;;;;;;5044575;28;20057;-81
2021/12/06 12:44:17;;;;;;;41.20;23.05;;;;;;;;;;5044317;28;20500;-80
2021/12/06 12:46:45;;;;;;;41.33;23.00;;;;;;;;;;5046656;28;20343;-79
2021/12/06 12:49:13;;;;;;;43.40;22.88;;;;;;;;;;5044290;28;20071;-79
2021/12/06 12:51:45;;;;;;;46.15;23.98;;;;;;;;;;5044796;28;20051;-79
2021/12/06 12:54:15;;;;;;;48.47;24.77;;;;;;;;;;5044792;28;20447;-80
2021/12/06 12:56:43;;;;;;;49.65;25.63;;;;;;;;;;5043804;28;20132;-79
2021/12/06 12:59:28;;;;;;;45.65;25.27;;;;;;;;;;5046287;28;20048;-79
2021/12/06 13:02:12;;;;;;;50.45;26.15;;;;;;;;;;5045038;28;20499;-79
2021/12/06 13:04:57;;;;;;;45.67;25.67;;;;;;;;;;5044490;28;20057;-79
2021/12/06 13:07:24;;;;;;;47.33;26.00;;;;;;;;;;5045539;28;20061;-79
2021/12/06 13:09:50;;;;;;;50.00;27.15;;;;;;;;;;5043597;28;20156;-79
2021/12/06 13:12:17;;;;;;;50.80;27.02;;;;;;;;;;5027693;28;20127;-79
2021/12/06 13:14:57;;;;;;;48.35;25.98;;;;;;;;;;5044723;28;20037;-79
2021/12/06 13:17:31;;;;;;;50.33;27.35;;;;;;;;;;5045560;28;20700;-80
2021/12/06 13:20:10;;;;;;;53.83;29.50;;;;;;;;;;5045183;28;20045;-80
2021/12/06 13:22:47;;;;;;;54.30;30.95;;;;;;;;;;5043917;28;20045;-79
2021/12/06 13:25:14;;;;;;;55.42;30.73;;;;;;;;;;5047220;28;20076;-79
2021/12/06 13:27:45;;;;;;;59.45;31.98;;;;;;;;;;5042193;28;20045;-79
2021/12/06 13:30:25;;;;;;;60.08;32.45;;;;;;;;;;5045634;28;20393;-80
2021/12/06 13:32:51;;;;;;;57.40;29.70;;;;;;;;;;5045383;28;20183;-79
2021/12/06 13:35:17;;;;;;;49.63;27.95;;;;;;;;;;5047782;28;20052;-79
2021/12/06 13:37:43;;;;;;;47.33;25.83;;;;;;;;;;5048084;28;20048;-79
2021/12/06 13:40:20;;;;;;;45.78;26.95;;;;;;;;;;5047493;28;20052;-80
2021/12/06 13:42:47;;;;;;;52.08;27.48;;;;;;;;;;5049306;28;20458;-80
2021/12/06 13:45:22;;;;;;;50.50;28.60;;;;;;;;;;5046935;28;20486;-79
2021/12/06 13:48:08;;;;;;;55.97;29.35;;;;;;;;;;5049370;28;20044;-81
2021/12/06 13:50:37;;;;;;;57.20;29.48;;;;;;;;;;5047514;28;20576;-79
2021/12/06 13:53:04;;;;;;;59.30;30.40;;;;;;;;;;5047106;28;20634;-80
2021/12/06 13:55:37;;;;;;;50.28;28.70;;;;;;;;;;5049890;28;20484;-81
2021/12/06 13:58:06;;;;;;;47.03;27.85;;;;;;;;;;5046242;28;20392;-81
2021/12/06 14:00:50;;;;;;;51.20;28.13;;;;;;;;;;5048872;28;20094;-81
2021/12/06 14:03:36;;;;;;;59.10;30.67;;;;;;;;;;5048447;28;20485;-81
2021/12/06 14:06:07;;;;;;;50.83;28.48;;;;;;;;;;5047056;28;20095;-80
2021/12/06 14:08:34;;;;;;;51.40;28.73;;;;;;;;;;5049387;28;20115;-80
2021/12/06 14:11:00;;;;;;;45.65;26.92;;;;;;;;;;5048339;28;20353;-81
2021/12/06 14:13:27;;;;;;;54.95;31.02;;;;;;;;;;5049041;28;20093;-80
2021/12/06 14:15:55;;;;;;;52.85;29.55;;;;;;;;;;5048415;28;20049;-80
2021/12/06 14:18:25;;;;;;;55.45;29.67;;;;;;;;;;5047234;28;20111;-80
2021/12/06 14:20:57;;;;;;;58.22;31.10;;;;;;;;;;5046967;28;20052;-80
2021/12/06 14:23:24;;;;;;;54.55;30.40;;;;;;;;;;5047891;28;20053;-79
2021/12/06 14:25:52;;;;;;;54.15;32.53;;;;;;;;;;5049381;28;20048;-80
2021/12/06 14:28:20;;;;;;;53.45;29.10;;;;;;;;;;5030535;28;20044;-81
2021/12/06 14:30:47;;;;;;;49.95;29.30;;;;;;;;;;5048849;28;20900;-80
2021/12/06 14:33:13;;;;;;;54.00;32.08;;;;;;;;;;5029364;28;20544;-81
2021/12/06 14:35:42;;;;;;;50.70;30.63;;;;;;;;;;5047123;28;20417;-80
2021/12/06 14:38:08;;;;;;;55.95;33.60;;;;;;;;;;5047426;28;20048;-81
2021/12/06 14:40:34;;;;;;;53.60;30.17;;;;;;;;;;5031293;28;20493;-79
2021/12/06 14:43:00;;;;;;;50.80;30.52;;;;;;;;;;5048943;28;20064;-80